Montrose, Minnesota
Current Conditions -  °F | °C
As of 5:15 PM on Wednesday 26 Nov 2014 (Local Time) from KCFE Reporting Station
Overcast Overcast  
Wind Chill: -11°   Ceiling: 2500
Heat Index: -6°   Visibility: 10mi
Dew Point: -11°   Wind: 8mph
Humidity: 70%   Direction: 320°NW
Pressure: 30.31"   Gusts: NA
Location:  45.06°N, 93.91°W
Report Text: KCFE 262315Z AUTO 32007KT 10SM OVC025 M06/M11 A3031 RMK AO2 T10601107
Loading
Personal Weather Stations






























Interactive Weather Map New forecast layout! Learn more

10-Day Weather Forecast

Advertisements
Track Severe Weather on mobile